Monclova, COA, Mexico
Current Conditions -  °F | °C
As of 5:45 PM on Monday 22 Dec 2014 (Local Time) from MMMV Reporting Station
Scattered Clouds Scattered Clouds  
Wind Chill: 84°   Ceiling: Unl
Heat Index: 84°   Visibility: 12mi
Dew Point: 30°   Wind: 8mph
Humidity: 14%   Direction: 250°WSW
Pressure: 29.61"   Gusts: NA
Location:  26.91°N, 101.42°W
Report Text: MMMV 222345Z 25007KT 12SM SCT200 29/M01 A2961 RMK 8/002
Loading
Personal Weather Stations






























Interactive Weather Map New forecast layout! Learn more

10-Day Weather Forecast

Advertisements
Track Severe Weather on mobile